Chester, NJ

9:35 AM EDT on May 06, 2015 (GMT -0400)
KNJGLADS3 | | Change Station
CLOSE
Current Station
Personal Weather Station
Location: Gladstone, NJ
Elevation: 312 ft
Nearby Weather Stations

Elev 312 ft 40.73 °N, 74.67 °W | Updated 5 minutes ago

Overcast
Overcast
62.1 °F
Feels Like 62.1 °F
N
0.0
Wind Variable Wind from ENE
Gusts 6.0 mph

Today
High -- | Low -- °F
--% Chance of Precip.
Yesterday
High -- | Low -- °F
Precip. -- in
5:51 AM 7:59 PM
Waning Gibbous, 94% visible
Pressure 30.27 in
Visibility 10.0 miles
Clouds Few 7000 ft
Scattered Clouds 9000 ft
Overcast 10000 ft
Dew Point 50 °F
Humidity 65%
Rainfall 0.00 in
Snow Depth Not available.
UV 1 out of 12
Pollen 3.80 out of 12
Air Quality Not available.
Flu Activity Local Activity
METAR KSMQ 061253Z AUTO 04006KT 10SM -RA FEW070 SCT090 OVC100 18/07 A3027 RMK AO2 SLP251 P0000 T01780072 TSNO

More Conditions Fewer Conditions

Pressure 30.27 in
Visibility 10.0 miles
Clouds Few 7000 ft
Scattered Clouds 9000 ft
Overcast 10000 ft
Dew Point 50 °F
Humidity 65%
Rainfall 0.00 in
Snow Depth Not available.
UV 1 out of 12
Pollen 3.80 out of 12
Air Quality Not available.
Flu Activity Local Activity
METAR KSMQ 061253Z AUTO 04006KT 10SM -RA FEW070 SCT090 OVC100 18/07 A3027 RMK AO2 SLP251 P0000 T01780072 TSNO

More Conditions Fewer Conditions

Nowcast | as of 8:00 am EDT on May 6, 2015

Showers will continue to affect the area through the morning hours. Most rain will remain light, although some pockets of moderate to heavy rain may also occur. A rumble of thunder cannot be ruled out.

×

10-Day Weather Forecast

Almanac

Astronomy

May. 06, 2015 Rise Set
Actual Time
Civil Twilight
Nautical Twilight
Astronomical Twilight
Moon
Length of Visible Light
Length of Day
Tomorrow will be .
, % of the Moon is Illuminated

Today's Extremes

State Highs State Lows

Community

WunderPhotos

Upload Photos

1,818,897 photos uploaded!

WunderBlogs® & News

Nearby

Air Quality

  Air Quality AQ Index Pollutant
Not available.

Snow Depth

Station Depth Elevation

Earthquake Activity

City Distance Mag. Time & Date
Minimum magnitude displayed is 2.5.

Coastal Water Temperatures

Place Temperature

Stations

Nearby Weather Stations

Station Location Temp. Windchill Dew Point Humidity Wind Precip. Elev Updated Type